Time;durP1;ratioP1;P1;durP2;ratioP2;P2;SDS_P1;SDS_P2;PMS_P1;PMS_P2;Temp;Humidity;BMP_temperature;BMP_pressure;BME280_temperature;BME280_humidity;BME280_pressure;Samples;Min_cycle;Max_cycle;Signal;HPM_P1;HPM_P2
2023/03/30 00:02:23;;;;;;;21.35;13.10;;;10.30;99.90;;;;;;6274773;22;20007;-83
2023/03/30 00:04:50;;;;;;;19.77;12.57;;;10.30;99.90;;;;;;6275667;22;20012;-83
2023/03/30 00:07:17;;;;;;;20.17;11.60;;;10.30;99.90;;;;;;6275381;22;20086;-83
2023/03/30 00:09:43;;;;;;;19.08;11.82;;;10.40;99.90;;;;;;6274946;22;20071;-83
2023/03/30 00:12:09;;;;;;;18.35;11.85;;;10.60;99.90;;;;;;6273577;22;20019;-83
2023/03/30 00:14:36;;;;;;;19.83;11.57;;;10.40;99.90;;;;;;6273740;22;20023;-83
2023/03/30 00:17:06;;;;;;;19.15;11.52;;;10.40;99.90;;;;;;6272719;22;20344;-83
2023/03/30 00:19:32;;;;;;;19.02;11.77;;;10.40;99.90;;;;;;6275457;22;20016;-83
2023/03/30 00:21:58;;;;;;;18.85;11.63;;;10.50;99.90;;;;;;6277007;22;20066;-83
2023/03/30 00:24:23;;;;;;;16.20;10.88;;;10.40;99.90;;;;;;6276475;22;20091;-83
2023/03/30 00:26:49;;;;;;;21.02;10.90;;;10.90;99.90;;;;;;6275629;22;20019;-83
2023/03/30 00:29:15;;;;;;;19.00;11.18;;;10.40;99.90;;;;;;6275298;22;20022;-83
2023/03/30 00:31:41;;;;;;;18.25;11.23;;;10.40;99.90;;;;;;6275112;22;20020;-83
2023/03/30 00:34:07;;;;;;;17.45;10.45;;;10.40;99.90;;;;;;6274833;22;20305;-83
2023/03/30 00:36:36;;;;;;;19.35;10.82;;;10.80;99.90;;;;;;6275478;22;20019;-82
2023/03/30 00:39:05;;;;;;;17.60;10.20;;;10.40;99.90;;;;;;6274341;22;20062;-83
2023/03/30 00:41:37;;;;;;;16.35;10.07;;;11.20;99.90;;;;;;6277777;22;20015;-83
2023/03/30 00:44:28;;;;;;;15.38;9.70;;;10.30;99.90;;;;;;6274000;22;20015;-83
2023/03/30 00:46:54;;;;;;;17.23;9.88;;;10.30;99.90;;;;;;6275148;22;20015;-83
2023/03/30 00:49:20;;;;;;;17.45;9.57;;;10.30;99.90;;;;;;6274893;22;20015;-83
2023/03/30 00:51:49;;;;;;;17.80;9.95;;;10.30;99.90;;;;;;6276457;22;20059;-83
2023/03/30 00:54:19;;;;;;;18.40;9.75;;;11.40;99.90;;;;;;6276775;22;20020;-83
2023/03/30 00:56:45;;;;;;;18.55;9.32;;;10.20;99.90;;;;;;6275537;22;20089;-83
2023/03/30 00:59:12;;;;;;;16.73;9.07;;;11.00;99.90;;;;;;6273871;22;20012;-83
2023/03/30 01:01:40;;;;;;;14.05;8.82;;;10.20;99.90;;;;;;6275370;22;20016;-82
2023/03/30 01:04:07;;;;;;;16.88;8.73;;;10.10;99.90;;;;;;6274702;22;20022;-83
2023/03/30 01:06:34;;;;;;;14.85;7.90;;;10.10;99.90;;;;;;6274556;22;20098;-83
2023/03/30 01:09:00;;;;;;;13.32;7.25;;;10.30;99.90;;;;;;6290217;22;20026;-83
2023/03/30 01:11:26;;;;;;;15.15;7.80;;;10.10;99.90;;;;;;6280152;22;20043;-83
2023/03/30 01:14:05;;;;;;;15.90;7.70;;;10.20;99.90;;;;;;6275494;22;20428;-83
2023/03/30 01:17:03;;;;;;;14.18;6.88;;;11.00;99.90;;;;;;6287721;22;19999;-82
2023/03/30 01:19:38;;;;;;;12.32;6.15;;;10.30;99.90;;;;;;6277491;22;20019;-83
2023/03/30 01:22:37;;;;;;;14.77;6.28;;;10.70;99.90;;;;;;6277143;22;20023;-82
2023/03/30 01:25:20;;;;;;;13.32;5.72;;;10.50;99.90;;;;;;6274982;22;20354;-83
2023/03/30 01:28:13;;;;;;;12.07;6.05;;;10.60;99.90;;;;;;6274458;22;20344;-83
2023/03/30 01:31:07;;;;;;;11.57;5.30;;;10.60;99.90;;;;;;6276635;22;20459;-83
2023/03/30 01:33:46;;;;;;;13.18;5.82;;;10.70;99.90;;;;;;6274251;22;20065;-83
2023/03/30 01:36:49;;;;;;;12.30;5.53;;;11.00;99.90;;;;;;6276619;22;20042;-83
2023/03/30 01:39:40;;;;;;;12.88;5.30;;;11.00;99.90;;;;;;6273900;22;20077;-83
2023/03/30 01:42:17;;;;;;;13.95;5.10;;;11.10;99.90;;;;;;6273726;22;20011;-83
2023/03/30 01:44:43;;;;;;;13.93;4.80;;;11.20;99.90;;;;;;6276948;22;20019;-83
2023/03/30 01:47:21;;;;;;;11.27;5.22;;;12.30;99.90;;;;;;6274694;22;20016;-83
2023/03/30 01:50:11;;;;;;;11.38;5.10;;;11.30;99.90;;;;;;6276735;22;20008;-83
2023/03/30 01:52:53;;;;;;;11.02;5.20;;;11.20;99.90;;;;;;6275080;22;20340;-83
2023/03/30 01:55:29;;;;;;;11.23;4.97;;;11.30;99.90;;;;;;6273563;22;20460;-83
2023/03/30 01:58:19;;;;;;;12.13;5.07;;;11.30;99.90;;;;;;6275052;22;20047;-83
2023/03/30 02:00:50;;;;;;;14.27;5.07;;;11.30;99.90;;;;;;6276694;22;20086;-83
2023/03/30 02:03:26;;;;;;;11.25;5.20;;;11.40;99.90;;;;;;6273431;22;20011;-83
2023/03/30 02:05:57;;;;;;;12.43;5.15;;;11.50;99.90;;;;;;6274137;22;20336;-83
2023/03/30 02:08:28;;;;;;;11.07;4.88;;;11.50;99.90;;;;;;6274003;22;20455;-83
2023/03/30 02:10:57;;;;;;;13.13;5.20;;;11.80;99.90;;;;;;6274768;22;20071;-83
2023/03/30 02:13:26;;;;;;;10.98;4.50;;;11.50;99.90;;;;;;6274010;22;20071;-83
2023/03/30 02:16:11;;;;;;;12.35;5.18;;;11.60;99.90;;;;;;6275339;22;20016;-83
2023/03/30 02:18:37;;;;;;;11.95;5.10;;;11.50;99.90;;;;;;6274143;22;20050;-83
2023/03/30 02:21:04;;;;;;;10.52;5.10;;;11.50;99.90;;;;;;6274204;22;20019;-83
2023/03/30 02:23:33;;;;;;;11.60;5.00;;;11.60;99.90;;;;;;6273818;22;20087;-83
2023/03/30 02:26:26;;;;;;;11.73;4.82;;;11.50;99.90;;;;;;6273596;22;20163;-83
2023/03/30 02:28:52;;;;;;;10.98;4.95;;;10.80;99.90;;;;;;6273919;22;20043;-83
2023/03/30 02:31:21;;;;;;;11.05;4.53;;;12.00;99.90;;;;;;6273226;22;20034;-83
2023/03/30 02:33:58;;;;;;;11.35;4.65;;;12.20;99.90;;;;;;6274485;22;20011;-83
2023/03/30 02:36:33;;;;;;;10.85;4.85;;;11.70;99.90;;;;;;6274479;22;20027;-83
2023/03/30 02:39:14;;;;;;;12.63;4.50;;;12.10;99.90;;;;;;6275190;22;20012;-83
2023/03/30 02:42:23;;;;;;;10.98;4.38;;;11.80;99.90;;;;;;6281713;22;20438;-83
2023/03/30 02:45:07;;;;;;;11.73;4.50;;;11.80;99.90;;;;;;6263047;22;20043;-83
2023/03/30 02:47:40;;;;;;;;;;;11.90;99.90;;;;;;6276373;22;20015;-83
2023/03/30 02:50:29;;;;;;;11.80;4.10;;;11.90;99.90;;;;;;6297672;22;19922;-83
2023/03/30 02:53:09;;;;;;;11.32;4.20;;;12.70;99.90;;;;;;6272623;22;20549;-83
2023/03/30 02:55:49;;;;;;;12.20;4.65;;;13.10;99.90;;;;;;6274469;22;20016;-84
2023/03/30 02:58:39;;;;;;;11.38;4.50;;;12.00;99.90;;;;;;6273456;22;20016;-83
2023/03/30 03:01:10;;;;;;;11.73;4.80;;;12.00;99.90;;;;;;6273468;22;20436;-83
2023/03/30 03:03:42;;;;;;;10.93;4.72;;;12.00;99.90;;;;;;6274232;22;20019;-83
2023/03/30 03:06:08;;;;;;;12.57;4.70;;;12.00;99.90;;;;;;6274749;22;20352;-83
2023/03/30 03:08:39;;;;;;;10.38;4.50;;;11.90;99.90;;;;;;6274103;22;20012;-84
2023/03/30 03:11:08;;;;;;;10.18;4.25;;;11.80;99.90;;;;;;6273092;22;20065;-84
2023/03/30 03:13:35;;;;;;;11.43;4.63;;;11.70;99.90;;;;;;6275085;22;20103;-84
2023/03/30 03:16:02;;;;;;;10.43;4.35;;;11.50;99.90;;;;;;6273822;22;20103;-83
2023/03/30 03:18:29;;;;;;;12.63;5.00;;;11.50;99.90;;;;;;6273798;22;20019;-84
2023/03/30 03:20:55;;;;;;;11.68;4.55;;;11.40;99.90;;;;;;6273329;22;20019;-83
2023/03/30 03:23:21;;;;;;;10.38;4.47;;;11.30;99.90;;;;;;6273898;22;20043;-83
2023/03/30 03:25:47;;;;;;;9.65;4.15;;;11.90;99.90;;;;;;6274665;22;20019;-84
2023/03/30 03:28:13;;;;;;;11.48;4.90;;;11.20;99.90;;;;;;6274020;22;20018;-84
2023/03/30 03:30:38;;;;;;;13.00;4.95;;;11.10;99.90;;;;;;6275949;22;20049;-84
2023/03/30 03:33:06;;;;;;;9.63;4.22;;;11.10;99.90;;;;;;6272794;22;20012;-83
2023/03/30 03:35:32;;;;;;;11.30;4.47;;;11.40;99.90;;;;;;6274207;22;20390;-84
2023/03/30 03:37:58;;;;;;;10.73;4.53;;;11.20;99.90;;;;;;6273724;22;20015;-84
2023/03/30 03:40:24;;;;;;;14.15;5.05;;;11.20;99.90;;;;;;6274790;22;20102;-83
2023/03/30 03:42:53;;;;;;;12.50;4.47;;;12.20;99.90;;;;;;6275702;22;20016;-84
2023/03/30 03:45:21;;;;;;;11.25;4.50;;;11.50;99.90;;;;;;6273837;22;20024;-83
2023/03/30 03:47:50;;;;;;;13.00;4.22;;;12.30;99.90;;;;;;6272625;22;20444;-84
2023/03/30 03:50:16;;;;;;;10.68;4.28;;;13.30;99.90;;;;;;6274892;22;20420;-84
2023/03/30 03:52:41;;;;;;;11.13;4.22;;;12.00;99.90;;;;;;6274105;22;20016;-84
2023/03/30 03:55:07;;;;;;;10.85;3.90;;;12.00;99.90;;;;;;6273082;22;20027;-84
2023/03/30 03:57:33;;;;;;;11.02;4.22;;;12.10;99.90;;;;;;6276022;22;20016;-84
2023/03/30 03:59:59;;;;;;;11.43;4.18;;;13.30;99.90;;;;;;6275502;22;20436;-83
2023/03/30 04:02:25;;;;;;;12.18;4.28;;;13.30;99.90;;;;;;6276478;22;20069;-84
2023/03/30 04:04:52;;;;;;;11.90;3.97;;;13.10;99.90;;;;;;6276619;22;20054;-84
2023/03/30 04:07:18;;;;;;;10.82;4.15;;;12.20;99.90;;;;;;6275213;22;20233;-84
2023/03/30 04:09:44;;;;;;;11.23;4.10;;;12.40;99.90;;;;;;6275146;22;20008;-84
2023/03/30 04:12:09;;;;;;;9.15;4.10;;;12.90;99.90;;;;;;6278365;22;20023;-84
2023/03/30 04:14:35;;;;;;;11.23;4.28;;;12.20;99.90;;;;;;6277729;22;20012;-84
2023/03/30 04:17:01;;;;;;;9.77;4.22;;;12.80;99.90;;;;;;6274659;22;20454;-84
2023/03/30 04:19:30;;;;;;;9.68;4.10;;;13.10;99.90;;;;;;6278400;22;20022;-84
2023/03/30 04:21:57;;;;;;;12.27;4.10;;;12.10;99.90;;;;;;6290571;22;20016;-82
2023/03/30 04:24:26;;;;;;;11.27;4.22;;;13.30;99.90;;;;;;6281235;22;20400;-84
2023/03/30 04:27:02;;;;;;;12.75;4.07;;;12.10;99.90;;;;;;6273779;22;20016;-84
2023/03/30 04:29:28;;;;;;;11.38;4.07;;;13.20;99.90;;;;;;6276908;22;20023;-84
2023/03/30 04:31:55;;;;;;;12.10;4.40;;;12.40;99.90;;;;;;6277678;22;20054;-84
2023/03/30 04:34:21;;;;;;;10.50;4.10;;;11.90;99.90;;;;;;6275218;22;20026;-83
2023/03/30 04:36:47;;;;;;;11.10;4.18;;;11.80;99.90;;;;;;6274429;22;20012;-83
2023/03/30 04:39:16;;;;;;;12.05;4.15;;;11.70;99.90;;;;;;6276877;22;20011;-83
2023/03/30 04:41:44;;;;;;;11.60;4.38;;;12.80;99.90;;;;;;6275505;22;20043;-84
2023/03/30 04:44:10;;;;;;;11.23;4.18;;;11.70;99.90;;;;;;6274609;22;20014;-83
2023/03/30 04:46:36;;;;;;;10.85;4.15;;;12.70;99.90;;;;;;6275532;22;20343;-84
2023/03/30 04:49:02;;;;;;;12.70;4.10;;;12.30;99.90;;;;;;6276928;22;20053;-84
2023/03/30 04:51:28;;;;;;;10.32;3.92;;;11.90;99.90;;;;;;6276601;22;20042;-84
2023/03/30 04:53:54;;;;;;;10.80;4.47;;;11.60;99.90;;;;;;6276128;22;20440;-84
2023/03/30 04:56:20;;;;;;;13.82;4.65;;;12.80;99.90;;;;;;6277286;22;20019;-84
2023/03/30 04:58:46;;;;;;;13.50;4.78;;;11.70;99.90;;;;;;6274712;22;20046;-84
2023/03/30 05:01:15;;;;;;;13.70;3.92;;;12.80;99.90;;;;;;6275128;22;20015;-84
2023/03/30 05:03:40;;;;;;;13.45;3.85;;;11.70;99.90;;;;;;6275120;22;20339;-84
2023/03/30 05:06:06;;;;;;;10.60;4.68;;;12.80;99.90;;;;;;6273935;22;20035;-84
2023/03/30 05:08:33;;;;;;;9.38;3.50;;;11.80;99.90;;;;;;6275142;22;20095;-83
2023/03/30 05:11:03;;;;;;;12.80;4.20;;;13.00;99.90;;;;;;6274803;22;20121;-84
2023/03/30 05:13:29;;;;;;;12.15;3.97;;;12.40;99.90;;;;;;6273864;22;20011;-84
2023/03/30 05:15:56;;;;;;;11.48;4.18;;;11.90;99.90;;;;;;6276002;22;20037;-84
2023/03/30 05:18:31;;;;;;;10.02;3.75;;;11.90;99.90;;;;;;6274117;22;20007;-84
2023/03/30 05:20:57;;;;;;;11.05;4.05;;;12.00;99.90;;;;;;6277452;22;20091;-84
2023/03/30 05:23:32;;;;;;;9.75;3.70;;;12.50;99.90;;;;;;6328100;22;20015;-84
2023/03/30 05:25:58;;;;;;;9.98;3.50;;;13.20;99.90;;;;;;6338306;22;20443;-84
2023/03/30 05:28:24;;;;;;;10.68;3.72;;;12.90;99.90;;;;;;6311681;22;20022;-84
2023/03/30 05:30:53;;;;;;;11.50;3.90;;;13.20;99.90;;;;;;6339665;22;20388;-84
2023/03/30 05:33:20;;;;;;;9.73;3.70;;;12.00;99.90;;;;;;6336073;22;20026;-84
2023/03/30 05:35:46;;;;;;;13.10;4.63;;;12.40;99.90;;;;;;6339572;22;20086;-84
2023/03/30 05:38:12;;;;;;;12.25;4.30;;;12.00;99.90;;;;;;6337160;22;20099;-84
2023/03/30 05:40:38;;;;;;;12.25;4.47;;;12.70;99.90;;;;;;6309670;22;20436;-84
2023/03/30 05:43:03;;;;;;;10.73;4.38;;;13.10;99.90;;;;;;6338474;22;20439;-84
2023/03/30 05:45:29;;;;;;;9.88;3.97;;;12.00;99.90;;;;;;6340360;22;20085;-84
2023/03/30 05:47:55;;;;;;;12.13;5.03;;;12.20;99.90;;;;;;6339544;22;20149;-84
2023/03/30 05:50:32;;;;;;;10.20;4.55;;;12.10;99.90;;;;;;6336515;22;20090;-84
2023/03/30 05:52:58;;;;;;;15.85;7.90;;;12.20;99.90;;;;;;6341006;22;20030;-84
2023/03/30 05:55:23;;;;;;;11.88;4.00;;;13.20;99.90;;;;;;6327268;22;20015;-82
2023/03/30 05:58:07;;;;;;;10.95;3.60;;;12.90;99.90;;;;;;6312234;22;20295;-84
2023/03/30 06:00:35;;;;;;;10.50;4.57;;;12.20;99.90;;;;;;6310687;22;20018;-84
2023/03/30 06:03:01;;;;;;;12.38;3.70;;;12.30;99.90;;;;;;6338717;22;20021;-84
2023/03/30 06:05:45;;;;;;;16.35;8.25;;;12.90;99.90;;;;;;6311169;22;20011;-84
2023/03/30 06:08:12;;;;;;;12.52;5.82;;;12.60;99.90;;;;;;6310115;22;20018;-84
2023/03/30 06:10:38;;;;;;;8.98;3.20;;;12.40;99.90;;;;;;6310942;22;20447;-84
2023/03/30 06:13:04;;;;;;;9.40;3.53;;;12.50;99.90;;;;;;6310804;22;20019;-84
2023/03/30 06:15:29;;;;;;;9.43;3.15;;;12.80;99.90;;;;;;6310070;22;20022;-84
2023/03/30 06:17:56;;;;;;;10.13;4.07;;;13.20;99.90;;;;;;6310818;22;20030;-84
2023/03/30 06:20:23;;;;;;;21.55;10.70;;;13.20;99.90;;;;;;6336853;22;20017;-84
2023/03/30 06:22:50;;;;;;;16.33;11.52;;;13.00;99.90;;;;;;6309964;22;20056;-84
2023/03/30 06:25:16;;;;;;;13.43;5.90;;;12.60;99.90;;;;;;6310575;22;20023;-84
2023/03/30 06:27:41;;;;;;;11.95;5.80;;;12.60;99.90;;;;;;6339457;22;20071;-85
2023/03/30 06:30:10;;;;;;;19.02;10.02;;;12.70;99.90;;;;;;6334425;22;20465;-84
2023/03/30 06:32:39;;;;;;;11.07;4.00;;;12.80;99.90;;;;;;6337343;22;20011;-84
2023/03/30 06:35:22;;;;;;;11.65;3.80;;;13.40;99.90;;;;;;6338230;22;20085;-84
2023/03/30 06:37:48;;;;;;;11.68;3.25;;;12.80;99.90;;;;;;6337952;22;20015;-85
2023/03/30 06:40:32;;;;;;;12.25;3.95;;;14.00;99.90;;;;;;6310591;22;20438;-84
2023/03/30 06:42:57;;;;;;;9.88;3.85;;;13.90;99.90;;;;;;6337460;22;20025;-85
2023/03/30 06:45:23;;;;;;;10.52;3.40;;;13.70;99.90;;;;;;6338260;22;20011;-84
2023/03/30 06:48:01;;;;;;;11.57;3.80;;;13.00;99.90;;;;;;6310175;22;20027;-84
2023/03/30 06:50:27;;;;;;;13.95;4.10;;;12.90;99.90;;;;;;6309893;22;20007;-85
2023/03/30 06:52:53;;;;;;;13.60;3.63;;;14.10;99.90;;;;;;6337130;22;20015;-85
2023/03/30 06:55:18;;;;;;;13.60;4.07;;;13.80;99.90;;;;;;6310134;22;20042;-84
2023/03/30 06:57:44;;;;;;;13.07;3.65;;;13.50;99.90;;;;;;6309903;22;20018;-85
2023/03/30 07:00:14;;;;;;;9.70;3.30;;;13.90;99.90;;;;;;6338662;22;20335;-85
2023/03/30 07:02:45;;;;;;;12.20;3.70;;;12.90;99.90;;;;;;6310739;22;20014;-86
2023/03/30 07:05:11;;;;;;;9.68;3.85;;;13.90;99.90;;;;;;6309929;22;20045;-85
2023/03/30 07:07:46;;;;;;;10.07;3.40;;;13.80;99.90;;;;;;6310755;22;20009;-85
2023/03/30 07:10:12;;;;;;;10.60;3.20;;;13.00;99.90;;;;;;6310720;22;20057;-84
2023/03/30 07:12:39;;;;;;;11.82;4.43;;;13.70;99.90;;;;;;6310018;22;20011;-85
2023/03/30 07:15:15;;;;;;;12.43;4.30;;;12.90;99.90;;;;;;6310124;22;20461;-86
2023/03/30 07:17:56;;;;;;;9.63;3.35;;;12.90;99.90;;;;;;6342879;22;20018;-86
2023/03/30 07:20:22;;;;;;;11.38;3.90;;;14.20;99.90;;;;;;6311379;22;20015;-85
2023/03/30 07:22:47;;;;;;;12.10;3.10;;;14.10;99.90;;;;;;6310659;22;20038;-84
2023/03/30 07:25:13;;;;;;;10.52;3.20;;;13.00;99.90;;;;;;6341144;22;20019;-86
2023/03/30 07:27:39;;;;;;;9.95;3.15;;;13.00;99.90;;;;;;6357931;22;20019;-84
2023/03/30 07:30:07;;;;;;;13.15;3.90;;;14.00;99.90;;;;;;6340827;22;20052;-85
2023/03/30 07:32:33;;;;;;;15.25;8.23;;;12.90;99.90;;;;;;6311357;22;20015;-84
2023/03/30 07:34:59;;;;;;;13.73;5.03;;;13.50;99.90;;;;;;6311957;22;20038;-85
2023/03/30 07:37:24;;;;;;;10.00;3.25;;;12.90;99.90;;;;;;6338340;22;20144;-85
2023/03/30 07:39:50;;;;;;;10.85;3.75;;;12.90;99.90;;;;;;6337636;22;20088;-86
2023/03/30 07:42:16;;;;;;;12.63;3.75;;;12.80;99.90;;;;;;6312292;22;20030;-86
2023/03/30 07:44:41;;;;;;;9.95;3.00;;;13.10;99.90;;;;;;6340664;22;20338;-86
2023/03/30 07:47:07;;;;;;;11.10;4.32;;;12.80;99.90;;;;;;6311173;22;20018;-87
2023/03/30 07:49:33;;;;;;;12.57;5.20;;;12.80;99.90;;;;;;6312312;22;20015;-86
2023/03/30 07:52:17;;;;;;;12.85;5.55;;;13.60;99.90;;;;;;6311866;22;20046;-86
2023/03/30 07:54:43;;;;;;;11.73;3.47;;;12.80;99.90;;;;;;6311316;22;20015;-85
2023/03/30 07:57:24;;;;;;;13.95;5.70;;;13.40;99.90;;;;;;6311706;22;20246;-84
2023/03/30 08:00:07;;;;;;;13.20;3.28;;;13.00;99.90;;;;;;6311856;22;20403;-85
2023/03/30 08:02:32;;;;;;;15.02;7.00;;;12.90;99.90;;;;;;6339869;22;20015;-85
2023/03/30 08:05:01;;;;;;;12.82;3.38;;;13.50;99.90;;;;;;6339221;22;20465;-84
2023/03/30 08:07:27;;;;;;;13.82;5.63;;;14.10;99.90;;;;;;6339224;22;20082;-84
2023/03/30 08:09:53;;;;;;;14.32;3.28;;;13.60;99.90;;;;;;6339796;22;20011;-84
2023/03/30 08:12:19;;;;;;;10.63;2.97;;;12.80;99.90;;;;;;6339638;22;20018;-84
2023/03/30 08:14:45;;;;;;;22.10;9.82;;;13.40;99.90;;;;;;6338240;22;20343;-85
2023/03/30 08:17:13;;;;;;;16.02;7.30;;;13.90;99.90;;;;;;6311777;22;20021;-84
2023/03/30 08:19:47;;;;;;;17.63;5.20;;;13.10;99.90;;;;;;6312002;22;20007;-85
2023/03/30 08:22:13;;;;;;;11.35;3.70;;;12.80;99.90;;;;;;6300015;22;20015;-84
2023/03/30 08:24:56;;;;;;;17.50;6.07;;;14.00;99.90;;;;;;6308948;22;20064;-84
2023/03/30 08:27:31;;;;;;;13.68;4.22;;;12.80;99.90;;;;;;6280849;22;20011;-85
2023/03/30 08:29:56;;;;;;;17.50;5.00;;;12.70;99.90;;;;;;6280169;22;20015;-84
2023/03/30 08:32:22;;;;;;;14.43;4.45;;;14.00;99.90;;;;;;6308542;22;20011;-85
2023/03/30 08:34:48;;;;;;;16.00;5.32;;;12.60;99.90;;;;;;6308897;22;20312;-86
2023/03/30 08:37:14;;;;;;;13.95;3.67;;;13.50;99.90;;;;;;6280299;22;20068;-85
2023/03/30 08:39:39;;;;;;;18.70;5.00;;;13.70;99.90;;;;;;6305232;22;20438;-85
2023/03/30 08:42:29;;;;;;;17.20;6.32;;;13.50;99.90;;;;;;6306956;22;20007;-84
2023/03/30 08:44:56;;;;;;;19.13;5.93;;;12.50;99.90;;;;;;6280867;22;20015;-85
2023/03/30 08:47:56;;;;;;;16.08;4.57;;;12.80;99.90;;;;;;6274150;22;20018;-84
2023/03/30 08:50:45;;;;;;;20.10;7.97;;;13.30;99.90;;;;;;6308007;22;20015;-84
2023/03/30 08:53:14;;;;;;;22.52;8.95;;;13.20;99.90;;;;;;6280631;22;20398;-85
2023/03/30 08:56:07;;;;;;;18.92;7.10;;;14.00;99.90;;;;;;6280806;22;20019;-84
2023/03/30 08:58:58;;;;;;;19.50;4.80;;;13.00;99.90;;;;;;6317929;22;20023;-84
2023/03/30 09:02:11;;;;;;;13.98;4.15;;;12.30;99.90;;;;;;6283188;22;20019;-85
2023/03/30 09:05:00;;;;;;;22.13;9.57;;;11.40;99.90;;;;;;6307212;22;20114;-84
2023/03/30 09:07:43;;;;;;;18.98;4.82;;;11.70;99.90;;;;;;6308060;22;20057;-85
2023/03/30 09:10:44;;;;;;;18.85;4.28;;;11.70;99.90;;;;;;6278201;22;20046;-83
2023/03/30 09:13:16;;;;;;;25.98;8.02;;;11.40;99.90;;;;;;6279871;22;20067;-84
2023/03/30 09:16:06;;;;;;;35.03;14.73;;;12.90;99.90;;;;;;6280101;22;20019;-85
2023/03/30 09:18:34;;;;;;;20.95;6.03;;;11.90;99.90;;;;;;6278761;22;20023;-84
2023/03/30 09:21:05;;;;;;;18.90;6.72;;;12.30;99.90;;;;;;6279364;22;20450;-85
2023/03/30 09:23:32;;;;;;;22.85;7.70;;;13.00;99.90;;;;;;6279600;22;20443;-86
2023/03/30 09:26:26;;;;;;;19.38;5.28;;;13.00;99.90;;;;;;6306182;22;20015;-85
2023/03/30 09:29:09;;;;;;;18.33;4.88;;;12.50;99.90;;;;;;6306856;22;20096;-86
2023/03/30 09:31:40;;;;;;;21.23;4.25;;;12.70;99.90;;;;;;6305965;22;20015;-83
2023/03/30 09:34:27;;;;;;;15.80;3.90;;;13.50;99.90;;;;;;6306597;22;20439;-83
2023/03/30 09:36:59;;;;;;;19.00;4.70;;;13.00;99.90;;;;;;6307216;22;20434;-84
2023/03/30 09:45:51;;;;;;;15.02;3.50;;;13.30;99.90;;;;;;6337070;22;20540;-82
2023/03/30 09:48:43;;;;;;;13.57;3.40;;;13.30;99.90;;;;;;6336491;22;20027;-83
2023/03/30 09:51:28;;;;;;;23.02;8.18;;;13.10;99.90;;;;;;6338476;22;20015;-83
2023/03/30 09:54:14;;;;;;;15.98;3.75;;;13.20;99.90;;;;;;6335742;22;20382;-83
2023/03/30 10:00:24;;;;;;;;;;;12.70;99.90;;;;;;6305523;22;20077;-87
2023/03/30 10:06:27;;;;;;;14.82;3.50;;;13.40;99.90;;;;;;6312055;22;20022;-86
2023/03/30 10:09:11;;;;;;;16.55;5.63;;;13.40;99.90;;;;;;6279240;22;20073;-86
2023/03/30 10:11:57;;;;;;;13.95;3.13;;;13.40;99.90;;;;;;6283176;22;20076;-87
2023/03/30 10:14:42;;;;;;;15.25;3.50;;;13.40;99.90;;;;;;6283604;22;20019;-86
2023/03/30 10:21:31;;;;;;;16.67;3.28;;;13.40;99.90;;;;;;6218783;23;20079;-86
2023/03/30 10:24:35;;;;;;;16.73;3.35;;;13.60;99.90;;;;;;6203164;23;20024;-87
2023/03/30 10:27:12;;;;;;;16.83;3.63;;;13.40;99.90;;;;;;6216797;23;20101;-87
2023/03/30 10:30:18;;;;;;;16.13;4.00;;;14.40;99.90;;;;;;6269863;22;20069;-86
2023/03/30 10:32:59;;;;;;;15.00;3.20;;;14.70;99.90;;;;;;6280149;22;20019;-88
2023/03/30 10:39:23;;;;;;;14.45;3.55;;;14.10;99.90;;;;;;6180291;23;20029;-87
2023/03/30 10:41:52;;;;;;;17.35;3.55;;;14.90;99.90;;;;;;6157176;23;20019;-87
2023/03/30 10:44:25;;;;;;;17.15;3.80;;;13.80;99.90;;;;;;6182040;23;20049;-86
2023/03/30 10:47:40;;;;;;;13.45;3.17;;;14.50;99.90;;;;;;6097599;23;20485;-90
2023/03/30 10:50:58;;;;;;;14.88;3.55;;;13.60;99.90;;;;;;6096093;23;20022;-88
2023/03/30 10:53:59;;;;;;;14.05;4.35;;;13.60;99.90;;;;;;6122491;23;20018;-86
2023/03/30 10:56:42;;;;;;;11.00;2.30;;;13.60;99.90;;;;;;6068021;23;20023;-87
2023/03/30 10:59:57;;;;;;;12.68;2.92;;;13.70;99.90;;;;;;6127117;22;20019;-85
2023/03/30 11:03:14;;;;;;;12.48;3.13;;;13.80;99.90;;;;;;6254465;22;20031;-86
2023/03/30 11:06:11;;;;;;;13.93;4.93;;;13.20;99.90;;;;;;6330669;22;20068;-86
2023/03/30 11:08:43;;;;;;;16.58;5.53;;;14.70;99.90;;;;;;6338195;22;20376;-86
2023/03/30 11:11:18;;;;;;;15.77;3.92;;;14.80;99.90;;;;;;6335398;22;20018;-86
2023/03/30 11:13:50;;;;;;;11.85;2.92;;;13.90;99.90;;;;;;6309845;22;20347;-86
2023/03/30 11:16:37;;;;;;;15.05;3.25;;;13.80;99.90;;;;;;6337498;22;20377;-86
2023/03/30 11:19:25;;;;;;;12.95;3.00;;;13.70;99.90;;;;;;6304043;22;20456;-86
2023/03/30 11:30:19;;;;;;;13.02;3.83;;;14.40;99.90;;;;;;6336046;22;20015;-86
2023/03/30 11:33:36;;;;;;;13.45;4.40;;;14.20;99.90;;;;;;6335724;22;20022;-86
2023/03/30 11:36:22;;;;;;;14.32;3.35;;;14.70;99.90;;;;;;6181195;23;20445;-85
2023/03/30 11:39:10;;;;;;;13.73;4.43;;;14.50;99.90;;;;;;6196562;22;20026;-86
2023/03/30 11:42:25;;;;;;;13.93;3.20;;;14.40;99.90;;;;;;6335344;22;20010;-86
2023/03/30 11:45:38;;;;;;;14.13;3.53;;;14.40;99.90;;;;;;6309433;22;20015;-86
2023/03/30 11:48:35;;;;;;;13.75;2.55;;;14.30;99.90;;;;;;6309480;22;20011;-86
2023/03/30 11:51:21;;;;;;;16.73;3.40;;;14.30;99.90;;;;;;6341498;22;20076;-86
2023/03/30 11:53:50;;;;;;;14.57;3.10;;;14.20;99.90;;;;;;6311366;22;20011;-86
2023/03/30 11:56:29;;;;;;;13.63;2.55;;;14.20;99.90;;;;;;6341172;22;20484;-86
2023/03/30 11:59:23;;;;;;;13.85;2.80;;;14.10;99.90;;;;;;6322314;22;20067;-86
2023/03/30 12:02:04;;;;;;;13.02;2.75;;;14.30;99.90;;;;;;6285241;22;20023;-86
2023/03/30 12:04:44;;;;;;;17.65;4.78;;;14.00;99.90;;;;;;6338920;22;20014;-86
2023/03/30 12:07:29;;;;;;;18.10;5.55;;;14.00;99.90;;;;;;6309117;22;20107;-86
2023/03/30 12:09:59;;;;;;;19.52;4.55;;;13.90;99.90;;;;;;6338078;22;20040;-85
2023/03/30 12:12:38;;;;;;;13.35;2.97;;;14.20;99.90;;;;;;6310276;22;20450;-85
2023/03/30 12:15:28;;;;;;;18.08;5.30;;;14.30;99.90;;;;;;6308478;22;20338;-85
2023/03/30 12:18:04;;;;;;;16.85;3.50;;;14.30;99.90;;;;;;6312032;22;20023;-85
2023/03/30 12:20:54;;;;;;;19.08;4.88;;;14.20;99.90;;;;;;6310900;22;20381;-85
2023/03/30 12:23:39;;;;;;;13.15;3.33;;;14.20;99.90;;;;;;6311820;22;20022;-86
2023/03/30 12:26:23;;;;;;;15.05;3.25;;;14.30;99.90;;;;;;6306254;22;20011;-86
2023/03/30 12:28:51;;;;;;;;;;;15.00;99.90;;;;;;6329575;22;20019;-86
2023/03/30 12:31:18;;;;;;;16.40;3.28;;;15.10;99.90;;;;;;6339298;22;20293;-86
2023/03/30 12:33:50;;;;;;;17.48;3.40;;;15.70;99.90;;;;;;6311589;22;20023;-88
2023/03/30 12:36:50;;;;;;;16.08;3.80;;;15.40;99.90;;;;;;6310055;22;20073;-86
2023/03/30 12:39:49;;;;;;;16.80;2.92;;;15.50;99.90;;;;;;6233202;22;20015;-86
2023/03/30 12:42:35;;;;;;;14.18;3.20;;;15.30;99.90;;;;;;6301160;22;20011;-86
2023/03/30 12:45:22;;;;;;;16.38;3.25;;;15.10;99.90;;;;;;6311250;22;20096;-87
2023/03/30 12:48:13;;;;;;;16.45;3.35;;;14.90;99.90;;;;;;6311540;22;20011;-86
2023/03/30 12:51:00;;;;;;;16.85;3.65;;;14.80;99.90;;;;;;6338238;22;20381;-86
2023/03/30 12:53:55;;;;;;;14.73;3.08;;;14.60;99.90;;;;;;6339359;22;20018;-86
2023/03/30 12:56:36;;;;;;;16.08;4.10;;;14.50;99.90;;;;;;6338116;22;20076;-86
2023/03/30 12:59:21;;;;;;;14.45;3.40;;;14.40;99.90;;;;;;6310780;22;20145;-86
2023/03/30 13:02:36;;;;;;;13.40;2.83;;;14.90;99.90;;;;;;6311510;22;20450;-87
2023/03/30 13:05:04;;;;;;;14.68;3.50;;;14.40;99.90;;;;;;6338034;22;20365;-85
2023/03/30 13:07:35;;;;;;;16.17;3.35;;;14.30;99.90;;;;;;6311370;22;20036;-86
2023/03/30 13:10:29;;;;;;;14.68;3.10;;;14.30;99.90;;;;;;6338044;22;20015;-86
2023/03/30 13:12:57;;;;;;;16.67;3.17;;;14.10;99.90;;;;;;6311230;22;20011;-86
2023/03/30 13:15:28;;;;;;;13.18;3.13;;;14.30;99.90;;;;;;6311342;22;20072;-86
2023/03/30 13:17:54;;;;;;;19.63;3.45;;;14.20;99.90;;;;;;6323826;22;20029;-84
2023/03/30 13:20:34;;;;;;;18.08;3.80;;;14.20;99.90;;;;;;6324222;22;20007;-86
2023/03/30 13:23:12;;;;;;;14.20;2.92;;;14.30;99.90;;;;;;6312107;22;20021;-86
2023/03/30 13:25:47;;;;;;;15.55;3.22;;;15.20;99.90;;;;;;6339339;22;20031;-87
2023/03/30 13:32:01;;;;;;;13.07;2.92;;;14.70;99.90;;;;;;6320704;22;20019;-86
2023/03/30 13:34:54;;;;;;;17.52;3.50;;;14.70;99.90;;;;;;6313581;22;20111;-86
2023/03/30 13:37:55;;;;;;;18.02;3.22;;;14.60;99.90;;;;;;6280085;22;20015;-86
2023/03/30 13:40:33;;;;;;;14.68;3.63;;;14.60;99.90;;;;;;6273703;22;20474;-87
2023/03/30 13:43:38;;;;;;;15.85;3.03;;;14.50;99.90;;;;;;6279868;22;20019;-87
2023/03/30 13:46:12;;;;;;;17.90;3.42;;;14.50;99.90;;;;;;6278736;22;20389;-86
2023/03/30 13:48:53;;;;;;;;;;;14.70;99.90;;;;;;6282084;22;20023;-86
2023/03/30 13:51:24;;;;;;;16.00;3.70;;;14.60;99.90;;;;;;6279764;22;19950;-86
2023/03/30 13:54:03;;;;;;;14.88;3.72;;;14.70;99.90;;;;;;6279047;22;20378;-86